WetterOnline ( http://www.wetteronline.at )

Wetter aktuell Berlin

Aktuelles Wetter: Berlin-Dahlem (70m)

6-stündlich | Neueste Meldungen
Ortszeit Temperatur Wetter
Mi, 23.01. 19:00 -5.7° C Dunst
Mi, 23.01. 13:00 -4.5° C bewölkt
Mi, 23.01. 7:00 -6.4° C bewölkt
Mi, 23.01. 1:00 -5.6° C leicht bewölkt
Di, 22.01. 19:00 -2.8° C wolkenlos
Di, 22.01. 13:00 -0.5° C fast wolkenlos
Di, 22.01. 7:00 -4.9° C bewölkt
Di, 22.01. 1:00 -4.9° C leicht bewölkt
Ortszeit Temperatur Wetter
Do, 24.01. 0:00 -3.8° C bewölkt
Mi, 23.01. 23:00 -4.2° C Sprühregen
Mi, 23.01. 22:00 -4.8° C bewölkt
Mi, 23.01. 21:00 -5.4° C bewölkt
Mi, 23.01. 20:00 -5.5° C bewölkt
Mi, 23.01. 19:00 -5.7° C Dunst
Ortszeit Relative Feuchte Sichtweite
Mi, 23.01. 19:00 86% 0.7 km
Mi, 23.01. 13:00 85% 4.0 km
Mi, 23.01. 7:00 94% 6 km
Mi, 23.01. 1:00 93% 8 km
Di, 22.01. 19:00 81% 15 km
Di, 22.01. 13:00 73% 14 km
Di, 22.01. 7:00 96% 7 km
Di, 22.01. 1:00 96% 5.0 km
Ortszeit Relative Feuchte Sichtweite
Do, 24.01. 0:00 80% 13 km
Mi, 23.01. 23:00 83% 12 km
Mi, 23.01. 22:00 84% 12 km
Mi, 23.01. 21:00 85% 7 km
Mi, 23.01. 20:00 86% 7 km
Mi, 23.01. 19:00 86% 0.7 km
Ortszeit Niederschlagsmenge Niederschlagsart
Mi, 23.01. 19:00 0.1 l/m2 in 12 Std. Schnee
Mi, 23.01. 13:00 0.1 l/m2 in 6 Std. Schnee
Mi, 23.01. 7:00 0.1 l/m2 in 12 Std. Schnee
Mi, 23.01. 1:00 0.0 l/m2 in 6 Std. -
Di, 22.01. 19:00 0.0 l/m2 in 12 Std. -
Di, 22.01. 13:00 0.0 l/m2 in 6 Std. -
Di, 22.01. 7:00 0.1 l/m2 in 12 Std. -
Di, 22.01. 1:00 0.1 l/m2 in 6 Std. Schnee
Ortszeit Niederschlagsmenge Niederschlagsart
Do, 24.01. 0:00 keine Meldung -
Mi, 23.01. 23:00 keine Meldung -
Mi, 23.01. 22:00 keine Meldung -
Mi, 23.01. 21:00 keine Meldung -
Mi, 23.01. 20:00 keine Meldung -
Mi, 23.01. 19:00 keine Meldung -
Ortszeit Stärke Spitze Richtung
km/h Bft. km/h Grad Sektor
Mi, 23.01. 19:00 18 3 - 110° O
Mi, 23.01. 13:00 18 3 - 100° O
Mi, 23.01. 7:00 14 3 - 120° SO
Mi, 23.01. 1:00 14 3 - 130° SO
Di, 22.01. 19:00 11 2 - 150° SO
Di, 22.01. 13:00 11 2 - 170° S
Di, 22.01. 7:00 7 2 - 180° S
Di, 22.01. 1:00 7 2 - 200° S
Ortszeit Stärke Spitze Richtung
km/h Bft. km/h Grad Sektor
Do, 24.01. 0:00 14 3 - 110° O
Mi, 23.01. 23:00 14 3 - 110° O
Mi, 23.01. 22:00 14 3 - 120° SO
Mi, 23.01. 21:00 22 4 - 140° SO
Mi, 23.01. 20:00 22 4 - 130° SO
Mi, 23.01. 19:00 18 3 - 110° O
Ortszeit Untergrenze Bedeckung Gattung
total tief tief mittel hoch
Mi, 23.01. 19:00 390 m 7/8 7/8 Sc - -
Mi, 23.01. 13:00 330 m 7/8 7/8 St - -
Mi, 23.01. 7:00 180 m 7/8 7/8 St - -
Mi, 23.01. 1:00 8400 m 2/8 0/8 - - Ci
Di, 22.01. 19:00 - 0/8 0/8 - - -
Di, 22.01. 13:00 8400 m 1/8 0/8 - - Ci
Di, 22.01. 7:00 1080 m 7/8 7/8 Sc - -
Di, 22.01. 1:00 750 m 4/8 4/8 Sc - -
Ortszeit Bedeckungsgrad in Achtel und Wolkenuntergrenze
Do, 24.01. 0:00 7(630m)
Mi, 23.01. 23:00 7(540m)
Mi, 23.01. 22:00 7(480m)
Mi, 23.01. 21:00 7(390m)
Mi, 23.01. 20:00 7(390m)
Mi, 23.01. 19:00 7(390m)
Ortszeit Luftdruck NN (hPa) Tendenz (hPa in 3 Std.)
Mi, 23.01. 19:00 1007 + 1,2
Mi, 23.01. 13:00 1005 + 0,1
Mi, 23.01. 7:00 1005 + 0,3
Mi, 23.01. 1:00 1007 - 0,7
Di, 22.01. 19:00 1009 - 1,3
Di, 22.01. 13:00 1013 - 1,8
Di, 22.01. 7:00 1015 - 1,3
Di, 22.01. 1:00 1018 - 0,9
Ortszeit Luftdruck NN (hPa) Tendenz (hPa in 3 Std.)
Do, 24.01. 0:00 1009 + 1,0
Mi, 23.01. 23:00 1009 + 1,1
Mi, 23.01. 22:00 1009 + 1,4
Mi, 23.01. 21:00 1008 + 1,3
Mi, 23.01. 20:00 1008 + 1,2
Mi, 23.01. 19:00 1007 + 1,2
Ortszeit Schneehöhe (cm)
Mi, 23.01. 19:00 0
Mi, 23.01. 13:00 -
Mi, 23.01. 7:00 -
Mi, 23.01. 1:00 -
Di, 22.01. 19:00 0
Di, 22.01. 13:00 -
Di, 22.01. 7:00 -
Di, 22.01. 1:00 -
Ortszeit Schneehöhe (cm)
Do, 24.01. 0:00 -
Mi, 23.01. 23:00 -
Mi, 23.01. 22:00 -
Mi, 23.01. 21:00 -
Mi, 23.01. 20:00 -
Mi, 23.01. 19:00 0
Link zu dieser Seite / Seite empfehlen

Das Wetter in ...